Time;durP1;ratioP1;P1;durP2;ratioP2;P2;SDS_P1;SDS_P2;PMS_P1;PMS_P2;Temp;Humidity;BMP_temperature;BMP_pressure;BME280_temperature;BME280_humidity;BME280_pressure;Samples;Min_cycle;Max_cycle;Signal;HPM_P1;HPM_P2
2021/12/28 00:01:16;;;;;;;39.78;10.48;;;;;;;6.09;100.00;99282.38;5261501;28;20039;-68
2021/12/28 00:03:47;;;;;;;40.95;10.23;;;;;;;6.07;100.00;99282.50;5257784;28;20033;-68
2021/12/28 00:06:19;;;;;;;41.92;9.73;;;;;;;6.09;100.00;99285.84;5264857;28;20486;-68
2021/12/28 00:08:51;;;;;;;41.67;10.88;;;;;;;6.05;100.00;99276.47;5264544;28;20065;-69
2021/12/28 00:11:22;;;;;;;40.13;10.02;;;;;;;6.01;100.00;99275.06;5265750;28;20497;-69
2021/12/28 00:13:59;;;;;;;42.47;10.88;;;;;;;5.99;100.00;99273.53;5261536;28;20039;-68
2021/12/28 00:17:58;;;;;;;43.67;11.02;;;;;;;5.99;100.00;99281.47;5267532;28;20032;-68
2021/12/28 00:19:22;;;;;;;40.88;10.73;;;;;;;5.98;100.00;99274.47;5264462;28;20032;-69
2021/12/28 00:21:53;;;;;;;36.20;10.65;;;;;;;5.95;100.00;99266.78;5260185;28;20437;-69
2021/12/28 00:24:24;;;;;;;38.05;10.88;;;;;;;5.99;100.00;99263.75;5264062;28;20052;-68
2021/12/28 00:26:56;;;;;;;42.15;11.25;;;;;;;5.98;100.00;99269.19;5261004;28;20074;-69
2021/12/28 00:29:27;;;;;;;41.17;10.55;;;;;;;5.98;100.00;99262.06;5264672;28;20178;-68
2021/12/28 00:31:59;;;;;;;41.22;11.45;;;;;;;5.93;100.00;99264.25;5262573;28;20047;-68
2021/12/28 00:34:31;;;;;;;45.50;10.63;;;;;;;5.92;100.00;99257.25;5261825;28;20137;-68
2021/12/28 00:37:03;;;;;;;35.67;10.50;;;;;;;5.87;100.00;99257.66;5260125;28;20044;-69
2021/12/28 00:39:34;;;;;;;37.35;9.57;;;;;;;5.84;100.00;99255.25;5257747;28;20460;-68
2021/12/28 00:42:07;;;;;;;35.83;10.55;;;;;;;5.83;100.00;99264.16;5257217;28;20029;-69
2021/12/28 00:44:39;;;;;;;39.35;10.07;;;;;;;5.82;100.00;99261.63;5260384;28;20029;-69
2021/12/28 00:47:10;;;;;;;40.75;11.20;;;;;;;5.84;100.00;99257.06;5257749;28;20024;-69
2021/12/28 00:49:41;;;;;;;45.03;9.93;;;;;;;5.83;100.00;99258.88;5259212;28;20024;-69
2021/12/28 00:52:13;;;;;;;48.28;10.70;;;;;;;5.93;100.00;99248.34;5261108;28;20520;-69
2021/12/28 00:54:44;;;;;;;42.97;10.35;;;;;;;5.96;100.00;99247.28;5257526;28;20033;-69
2021/12/28 00:57:15;;;;;;;47.95;10.90;;;;;;;6.00;100.00;99238.97;5259509;28;20060;-68
2021/12/28 00:59:46;;;;;;;53.25;11.18;;;;;;;6.05;100.00;99238.59;5258397;28;20082;-69
2021/12/28 01:02:18;;;;;;;46.95;10.60;;;;;;;6.01;100.00;99243.28;5256626;28;20032;-69
2021/12/28 01:04:49;;;;;;;40.95;10.40;;;;;;;5.98;100.00;99237.41;5262775;28;20087;-69
2021/12/28 01:07:20;;;;;;;49.60;9.98;;;;;;;5.90;100.00;99235.38;5259246;28;20062;-69
2021/12/28 01:09:52;;;;;;;43.92;10.10;;;;;;;5.95;100.00;99227.94;5262296;28;20052;-69
2021/12/28 01:12:24;;;;;;;47.03;9.95;;;;;;;5.85;100.00;99224.34;5258349;28;20142;-69
2021/12/28 01:14:55;;;;;;;41.67;9.43;;;;;;;5.90;100.00;99227.44;5262127;28;20107;-69
2021/12/28 01:17:26;;;;;;;43.47;9.95;;;;;;;5.85;100.00;99232.28;5265228;28;20123;-69
2021/12/28 01:19:58;;;;;;;41.60;9.45;;;;;;;5.84;100.00;99227.94;5266298;28;20027;-69
2021/12/28 01:22:29;;;;;;;48.22;9.50;;;;;;;5.81;100.00;99214.94;5268216;28;20038;-69
2021/12/28 01:25:00;;;;;;;45.15;8.82;;;;;;;5.77;100.00;99222.34;5265583;28;20059;-69
2021/12/28 01:27:32;;;;;;;43.17;9.13;;;;;;;5.72;100.00;99221.03;5260995;28;20028;-69
2021/12/28 01:30:06;;;;;;;53.10;9.30;;;;;;;5.61;100.00;99220.09;5260774;28;21123;-69
2021/12/28 01:32:37;;;;;;;46.92;9.20;;;;;;;5.66;100.00;99217.91;5256870;28;20039;-69
2021/12/28 01:35:13;;;;;;;39.80;10.20;;;;;;;5.70;100.00;99218.50;5257799;28;20021;-69
2021/12/28 01:37:45;;;;;;;54.53;11.25;;;;;;;5.69;100.00;99220.31;5258357;28;20627;-69
2021/12/28 01:40:21;;;;;;;51.20;9.60;;;;;;;5.66;100.00;99222.38;5259322;28;20075;-69
2021/12/28 01:42:54;;;;;;;49.65;9.55;;;;;;;5.62;100.00;99216.50;5257153;28;20053;-69
2021/12/28 01:45:34;;;;;;;44.70;9.43;;;;;;;5.68;100.00;99217.78;5259422;28;20079;-69
2021/12/28 01:48:07;;;;;;;40.78;8.90;;;;;;;5.65;100.00;99215.38;5259849;28;20039;-69
2021/12/28 01:50:40;;;;;;;44.35;8.93;;;;;;;5.65;100.00;99221.50;5259917;28;20470;-69
2021/12/28 01:53:12;;;;;;;43.83;8.80;;;;;;;5.58;100.00;99219.50;5258665;28;20020;-69
2021/12/28 01:55:46;;;;;;;50.47;9.57;;;;;;;5.62;100.00;99216.50;5260431;28;20024;-70
2021/12/28 01:58:18;;;;;;;46.97;9.30;;;;;;;5.69;100.00;99222.09;5259608;28;20114;-69
2021/12/28 02:00:52;;;;;;;45.92;9.25;;;;;;;5.68;100.00;99215.16;5257069;28;20020;-69
2021/12/28 02:03:26;;;;;;;50.72;9.60;;;;;;;5.64;100.00;99213.72;5260713;28;20237;-69
2021/12/28 02:05:57;;;;;;;50.13;9.43;;;;;;;5.74;100.00;99204.03;5256788;28;20029;-69
2021/12/28 02:08:29;;;;;;;46.05;9.23;;;;;;;5.69;100.00;99209.72;5258277;28;20108;-69
2021/12/28 02:11:00;;;;;;;53.40;9.75;;;;;;;5.84;100.00;99207.59;5260701;28;20055;-69
2021/12/28 02:13:32;;;;;;;40.13;9.45;;;;;;;5.89;100.00;99204.59;5262412;28;20124;-69
2021/12/28 02:16:03;;;;;;;50.60;9.27;;;;;;;5.89;100.00;99204.59;5259511;28;20025;-69
2021/12/28 02:18:36;;;;;;;48.13;9.05;;;;;;;5.95;100.00;99213.81;5260685;28;20029;-69
2021/12/28 02:21:08;;;;;;;62.97;11.18;;;;;;;5.95;100.00;99208.53;5263672;28;20417;-69
2021/12/28 02:23:41;;;;;;;54.47;9.70;;;;;;;6.00;100.00;99203.69;5263613;28;20494;-69
2021/12/28 02:26:12;;;;;;;46.03;9.07;;;;;;;6.03;100.00;99206.94;5261261;28;20025;-69
2021/12/28 02:28:43;;;;;;;53.40;9.68;;;;;;;6.06;100.00;99195.28;5263652;28;20044;-69
2021/12/28 02:31:18;;;;;;;63.60;11.13;;;;;;;6.06;100.00;99193.44;5264729;28;20158;-69
2021/12/28 02:33:50;;;;;;;58.92;9.50;;;;;;;6.11;100.00;99198.34;5261449;28;20399;-69
2021/12/28 02:36:22;;;;;;;57.15;9.98;;;;;;;6.06;100.00;99190.81;5264601;28;20029;-69
2021/12/28 02:38:53;;;;;;;50.17;9.20;;;;;;;6.13;100.00;99203.53;5262270;28;20043;-69
2021/12/28 02:41:24;;;;;;;59.53;8.77;;;;;;;6.07;100.00;99200.41;5263683;28;20036;-69
2021/12/28 02:44:01;;;;;;;50.85;8.95;;;;;;;6.08;100.00;99198.63;5261122;28;20467;-69
2021/12/28 02:46:33;;;;;;;40.72;8.73;;;;;;;6.13;100.00;99199.06;5264576;28;20041;-69
2021/12/28 02:49:04;;;;;;;44.33;9.25;;;;;;;6.14;100.00;99189.31;5262387;28;20122;-69
2021/12/28 02:51:35;;;;;;;52.03;9.35;;;;;;;6.17;100.00;99189.03;5264571;28;20032;-69
2021/12/28 02:54:07;;;;;;;49.40;8.80;;;;;;;6.19;100.00;99181.81;5260769;28;20064;-70
2021/12/28 02:56:38;;;;;;;46.28;8.80;;;;;;;6.23;100.00;99173.50;5262432;28;20035;-69
2021/12/28 02:59:09;;;;;;;44.90;9.30;;;;;;;6.27;100.00;99171.38;5261360;28;20031;-69
2021/12/28 03:01:40;;;;;;;49.90;9.75;;;;;;;6.26;100.00;99172.38;5262836;28;20064;-70
2021/12/28 03:04:12;;;;;;;38.67;8.82;;;;;;;6.22;100.00;99168.31;5260857;28;20040;-69
2021/12/28 03:06:43;;;;;;;46.88;9.07;;;;;;;6.22;100.00;99165.66;5262534;28;20436;-69
2021/12/28 03:09:15;;;;;;;44.65;8.32;;;;;;;6.21;100.00;99169.28;5264950;28;20072;-69
2021/12/28 03:11:47;;;;;;;47.83;9.52;;;;;;;6.24;100.00;99163.72;5265778;28;20021;-69
2021/12/28 03:14:18;;;;;;;48.22;8.70;;;;;;;6.21;100.00;99161.31;5261507;28;20133;-69
2021/12/28 03:16:49;;;;;;;44.03;8.70;;;;;;;6.22;100.00;99163.84;5266940;28;20036;-69
2021/12/28 03:19:21;;;;;;;45.70;7.78;;;;;;;6.21;100.00;99163.97;5262716;28;20620;-69
2021/12/28 03:21:52;;;;;;;45.53;7.80;;;;;;;6.14;100.00;99165.50;5262142;28;20209;-69
2021/12/28 03:24:24;;;;;;;47.03;7.72;;;;;;;6.13;100.00;99166.44;5260272;28;20071;-69
2021/12/28 03:26:55;;;;;;;45.22;7.90;;;;;;;6.11;100.00;99155.97;5266258;28;20038;-70
2021/12/28 03:29:26;;;;;;;42.80;7.82;;;;;;;6.14;100.00;99157.56;5257851;28;20056;-69
2021/12/28 03:31:57;;;;;;;46.03;7.70;;;;;;;6.14;100.00;99158.38;5262002;28;20071;-70
2021/12/28 03:34:29;;;;;;;38.47;7.63;;;;;;;6.22;100.00;99150.63;5269629;28;20116;-70
2021/12/28 03:37:00;;;;;;;41.33;8.10;;;;;;;6.28;100.00;99155.38;5263547;28;20108;-70
2021/12/28 03:39:31;;;;;;;43.35;7.32;;;;;;;6.38;100.00;99152.78;5263012;28;20037;-69
2021/12/28 03:42:05;;;;;;;40.92;8.05;;;;;;;6.37;100.00;99144.97;5259387;28;20143;-69
2021/12/28 03:44:36;;;;;;;40.50;6.82;;;;;;;6.42;100.00;99132.16;5267643;28;20553;-69
2021/12/28 03:47:08;;;;;;;39.67;7.00;;;;;;;6.43;100.00;99134.69;5260207;28;20033;-69
2021/12/28 03:49:39;;;;;;;39.53;8.05;;;;;;;6.48;100.00;99136.91;5265658;28;20035;-69
2021/12/28 03:52:10;;;;;;;47.35;7.75;;;;;;;6.45;100.00;99122.13;5263934;28;20051;-69
2021/12/28 03:54:42;;;;;;;36.40;7.28;;;;;;;6.37;100.00;99121.13;5259775;28;20025;-69
2021/12/28 03:57:13;;;;;;;38.60;6.57;;;;;;;6.34;100.00;99122.22;5260551;28;20037;-69
2021/12/28 03:59:44;;;;;;;43.90;6.80;;;;;;;6.36;100.00;99116.81;5262423;28;20025;-70
2021/12/28 04:02:16;;;;;;;38.70;6.80;;;;;;;6.41;100.00;99117.25;5261206;28;20063;-69
2021/12/28 04:04:47;;;;;;;36.78;6.82;;;;;;;6.53;100.00;99115.34;5259905;28;20036;-69
2021/12/28 04:07:20;;;;;;;36.65;6.72;;;;;;;6.59;100.00;99110.31;5260649;28;20082;-70
2021/12/28 04:12:23;;;;;;;35.88;6.28;;;;;;;6.70;100.00;99117.34;5262351;28;20535;-70
2021/12/28 04:14:56;;;;;;;38.83;6.38;;;;;;;6.75;100.00;99112.47;5259760;28;20059;-70
2021/12/28 04:17:28;;;;;;;38.05;6.30;;;;;;;6.83;100.00;99111.81;5261871;28;20661;-69
2021/12/28 04:20:00;;;;;;;34.58;6.60;;;;;;;6.80;100.00;99102.28;5274036;28;20513;-70
2021/12/28 04:22:31;;;;;;;43.78;6.65;;;;;;;6.82;100.00;99107.47;5262875;28;20032;-69
2021/12/28 04:25:04;;;;;;;36.38;6.47;;;;;;;6.89;100.00;99099.81;5260979;28;20036;-69
2021/12/28 04:27:35;;;;;;;34.38;6.40;;;;;;;6.91;100.00;99111.13;5256303;28;20494;-70
2021/12/28 04:30:09;;;;;;;37.70;5.78;;;;;;;6.92;100.00;99102.16;5260314;28;20115;-70
2021/12/28 04:32:41;;;;;;;35.28;5.97;;;;;;;6.93;100.00;99106.50;5260247;28;20040;-69
2021/12/28 04:35:14;;;;;;;34.78;6.03;;;;;;;7.00;100.00;99107.63;5263056;28;20029;-70
2021/12/28 04:37:45;;;;;;;40.95;5.70;;;;;;;6.99;100.00;99104.13;5266779;28;20355;-69
2021/12/28 04:40:18;;;;;;;31.55;5.55;;;;;;;7.07;100.00;99104.28;5270124;28;20028;-69
2021/12/28 04:42:49;;;;;;;27.80;5.38;;;;;;;7.09;100.00;99117.41;5291896;28;20021;-69
2021/12/28 04:45:20;;;;;;;33.97;5.38;;;;;;;7.05;100.00;99111.53;5259880;28;21878;-70
2021/12/28 04:47:52;;;;;;;31.33;5.13;;;;;;;7.13;100.00;99120.63;5261062;28;20467;-70
2021/12/28 04:50:23;;;;;;;36.25;5.55;;;;;;;7.11;100.00;99128.72;5257155;28;20177;-69
2021/12/28 04:52:57;;;;;;;28.33;5.45;;;;;;;7.17;100.00;99120.22;5262278;28;20614;-69
2021/12/28 04:55:29;;;;;;;24.48;4.72;;;;;;;7.19;100.00;99123.59;5262463;28;20029;-69
2021/12/28 04:58:00;;;;;;;30.75;5.47;;;;;;;7.22;100.00;99120.63;5259126;28;20037;-69
2021/12/28 05:00:32;;;;;;;34.05;5.13;;;;;;;7.24;100.00;99128.47;5260405;28;20534;-69
2021/12/28 05:03:04;;;;;;;31.75;5.32;;;;;;;7.23;100.00;99126.78;5263944;28;20029;-69
2021/12/28 05:05:40;;;;;;;27.75;4.97;;;;;;;7.26;100.00;99123.84;5260039;28;20028;-69
2021/12/28 05:08:13;;;;;;;30.73;5.18;;;;;;;7.26;100.00;99114.06;5261211;28;20045;-69
2021/12/28 05:10:44;;;;;;;28.48;5.80;;;;;;;7.23;100.00;99109.06;5262001;28;20064;-69
2021/12/28 05:13:16;;;;;;;25.38;4.97;;;;;;;7.28;100.00;99110.44;5256475;28;20145;-69
2021/12/28 05:15:48;;;;;;;34.53;5.20;;;;;;;7.24;100.00;99099.28;5259993;28;20032;-69
2021/12/28 05:18:20;;;;;;;25.30;4.35;;;;;;;7.30;100.00;99109.31;5260134;28;20029;-69
2021/12/28 05:20:51;;;;;;;27.70;4.60;;;;;;;7.32;100.00;99103.88;5265817;28;20398;-70
2021/12/28 05:23:23;;;;;;;20.27;4.85;;;;;;;7.31;100.00;99095.09;5267695;28;20040;-69
2021/12/28 05:25:54;;;;;;;25.15;4.47;;;;;;;7.33;100.00;99100.28;5259930;28;20478;-69
2021/12/28 05:28:25;;;;;;;20.23;4.25;;;;;;;7.33;100.00;99095.78;5261406;28;20025;-69
2021/12/28 05:30:57;;;;;;;32.55;4.82;;;;;;;7.33;100.00;99090.50;5261208;28;20029;-69
2021/12/28 05:33:28;;;;;;;25.35;4.30;;;;;;;7.35;100.00;99095.66;5256995;28;20032;-69
2021/12/28 05:35:59;;;;;;;23.58;4.72;;;;;;;7.31;100.00;99092.44;5264084;28;20036;-69
2021/12/28 05:38:31;;;;;;;24.35;4.10;;;;;;;7.30;100.00;99087.28;5260036;28;20561;-69
2021/12/28 05:41:03;;;;;;;22.48;3.80;;;;;;;7.38;100.00;99088.25;5258359;28;20518;-70
2021/12/28 05:43:35;;;;;;;19.65;3.83;;;;;;;7.40;100.00;99082.78;5259805;28;20025;-69
2021/12/28 05:46:06;;;;;;;27.75;4.72;;;;;;;7.40;100.00;99085.44;5261739;28;20090;-69
2021/12/28 05:48:37;;;;;;;18.58;3.80;;;;;;;7.36;100.00;99081.41;5261135;28;20028;-69
2021/12/28 05:51:09;;;;;;;27.63;3.90;;;;;;;7.36;100.00;99074.28;5259148;28;20112;-70
2021/12/28 05:53:40;;;;;;;23.73;4.40;;;;;;;7.39;100.00;99078.47;5265581;28;20175;-70
2021/12/28 05:56:12;;;;;;;20.23;3.20;;;;;;;7.37;100.00;99069.81;5264285;28;20036;-70
2021/12/28 05:58:43;;;;;;;23.13;4.18;;;;;;;7.40;100.00;99072.19;5261686;28;20131;-70
2021/12/28 06:01:14;;;;;;;20.10;3.55;;;;;;;7.43;100.00;99066.59;5268126;28;20025;-70
2021/12/28 06:03:46;;;;;;;20.50;3.78;;;;;;;7.42;100.00;99062.25;5262125;28;20831;-69
2021/12/28 06:06:17;;;;;;;21.20;3.35;;;;;;;7.39;100.00;99065.22;5259996;28;20186;-70
2021/12/28 06:08:50;;;;;;;15.60;3.28;;;;;;;7.47;100.00;99060.84;5264528;28;20090;-69
2021/12/28 06:11:22;;;;;;;19.73;3.60;;;;;;;7.47;100.00;99060.03;5267130;28;20446;-69
2021/12/28 06:13:53;;;;;;;21.02;3.13;;;;;;;7.47;100.00;99057.38;5261733;28;20033;-69
2021/12/28 06:16:24;;;;;;;23.30;3.35;;;;;;;7.50;100.00;99057.09;5264109;28;20032;-70
2021/12/28 06:18:56;;;;;;;16.23;3.05;;;;;;;7.50;100.00;99057.09;5266725;28;20050;-69
2021/12/28 06:21:30;;;;;;;17.30;3.10;;;;;;;7.52;100.00;99057.78;5268968;28;20024;-69
2021/12/28 06:24:04;;;;;;;18.63;3.58;;;;;;;7.53;100.00;99055.97;5268816;28;20051;-70
2021/12/28 06:26:36;;;;;;;19.63;3.83;;;;;;;7.51;100.00;99050.81;5262714;28;20088;-70
2021/12/28 06:29:07;;;;;;;22.10;3.25;;;;;;;7.48;100.00;99048.44;5268147;28;20494;-70
2021/12/28 06:31:39;;;;;;;14.23;2.85;;;;;;;7.50;100.00;99041.19;5256568;28;20103;-70
2021/12/28 06:34:10;;;;;;;19.63;3.30;;;;;;;7.49;100.00;99034.19;5260805;28;20458;-69
2021/12/28 06:36:43;;;;;;;13.82;2.90;;;;;;;7.49;100.00;99034.19;5265926;28;20029;-70
2021/12/28 06:39:14;;;;;;;18.95;3.92;;;;;;;7.47;100.00;99026.38;5259963;28;20033;-69
2021/12/28 06:41:46;;;;;;;17.73;3.33;;;;;;;7.49;100.00;99034.19;5264203;28;20553;-69
2021/12/28 06:44:17;;;;;;;19.08;3.67;;;;;;;7.42;100.00;99035.72;5259781;28;20478;-70
2021/12/28 06:46:49;;;;;;;17.08;2.70;;;;;;;7.39;100.00;99030.72;5261117;28;20036;-70
2021/12/28 06:49:20;;;;;;;15.27;2.50;;;;;;;7.43;100.00;99037.41;5258486;28;20021;-69
2021/12/28 06:51:52;;;;;;;15.93;2.92;;;;;;;7.37;100.00;99028.22;5262861;28;20398;-70
2021/12/28 06:54:23;;;;;;;14.00;2.80;;;;;;;7.41;100.00;99026.94;5256488;28;20067;-69
2021/12/28 06:56:54;;;;;;;13.00;2.38;;;;;;;7.42;100.00;99035.72;5260980;28;20044;-70
2021/12/28 06:59:25;;;;;;;13.85;2.67;;;;;;;7.39;100.00;99028.91;5262592;28;20254;-70
2021/12/28 07:01:58;;;;;;;21.42;4.00;;;;;;;7.39;100.00;99025.41;5262028;28;20120;-70
2021/12/28 07:04:29;;;;;;;19.80;7.65;;;;;;;7.39;100.00;99025.41;5258993;28;20028;-70
2021/12/28 07:07:00;;;;;;;23.60;10.60;;;;;;;7.42;100.00;99022.47;5267853;28;20192;-69
2021/12/28 07:09:32;;;;;;;21.38;8.27;;;;;;;7.40;100.00;99027.06;5259264;28;20049;-70
2021/12/28 07:12:04;;;;;;;21.88;8.07;;;;;;;7.42;100.00;99036.59;5262580;28;20086;-70
2021/12/28 07:14:37;;;;;;;19.45;8.82;;;;;;;7.45;100.00;99028.31;5259617;28;20049;-70
2021/12/28 07:17:08;;;;;;;16.45;3.65;;;;;;;7.49;100.00;99036.00;5262385;28;20044;-70
2021/12/28 07:19:39;;;;;;;11.00;2.75;;;;;;;7.49;100.00;99023.56;5262183;28;20028;-70
2021/12/28 07:22:10;;;;;;;11.48;2.70;;;;;;;7.49;100.00;99028.06;5266767;28;20032;-70
2021/12/28 07:24:42;;;;;;;12.40;2.47;;;;;;;7.54;100.00;99025.81;5264002;28;20032;-69
2021/12/28 07:27:14;;;;;;;10.73;2.50;;;;;;;7.54;100.00;99031.13;5265000;28;20128;-70
2021/12/28 07:29:45;;;;;;;13.93;2.63;;;;;;;7.56;100.00;99040.59;5264949;28;20430;-70
2021/12/28 07:32:16;;;;;;;8.50;2.17;;;;;;;7.57;100.00;99031.66;5264238;28;20028;-70
2021/12/28 07:34:48;;;;;;;12.90;2.70;;;;;;;7.57;100.00;99018.38;5272474;28;20108;-69
2021/12/28 07:37:19;;;;;;;11.52;2.63;;;;;;;7.59;100.00;99024.41;5263616;28;20032;-69
2021/12/28 07:39:50;;;;;;;11.32;2.75;;;;;;;7.60;100.00;99031.38;5264064;28;20029;-69
2021/12/28 07:42:21;;;;;;;11.02;3.20;;;;;;;7.60;100.00;99020.75;5261470;28;20029;-69
2021/12/28 07:44:53;;;;;;;13.80;2.63;;;;;;;7.56;100.00;99035.28;5268924;28;20036;-70
2021/12/28 07:47:24;;;;;;;12.50;2.72;;;;;;;7.62;100.00;99025.94;5264696;28;20045;-69
2021/12/28 07:49:55;;;;;;;15.43;3.15;;;;;;;7.63;100.00;99023.13;5273361;28;20115;-69
2021/12/28 07:52:26;;;;;;;11.38;3.08;;;;;;;7.66;100.00;99016.69;5259843;28;20032;-69
2021/12/28 07:54:58;;;;;;;11.18;3.15;;;;;;;7.66;100.00;99024.66;5265483;28;20036;-69
2021/12/28 07:57:30;;;;;;;12.70;3.13;;;;;;;7.63;100.00;99025.78;5273073;28;20138;-69
2021/12/28 08:00:09;;;;;;;11.65;3.38;;;;;;;7.66;100.00;99009.56;5268572;28;20036;-69
2021/12/28 08:02:43;;;;;;;11.75;3.50;;;;;;;7.72;100.00;99007.31;5270357;28;20025;-70
2021/12/28 08:05:15;;;;;;;14.35;3.20;;;;;;;7.73;100.00;98999.22;5267363;28;20033;-70
2021/12/28 08:07:47;;;;;;;10.85;3.53;;;;;;;7.70;100.00;99003.97;5261066;28;20024;-69
2021/12/28 08:10:21;;;;;;;9.35;3.28;;;;;;;7.73;100.00;99008.97;5262376;28;22492;-70
2021/12/28 08:12:54;;;;;;;14.50;4.93;;;;;;;7.75;100.00;99012.34;5265646;28;20032;-69
2021/12/28 08:15:26;;;;;;;10.45;4.03;;;;;;;7.81;100.00;99014.41;5260092;28;20028;-69
2021/12/28 08:17:58;;;;;;;11.43;4.50;;;;;;;7.79;100.00;99013.72;5265937;28;20021;-70
2021/12/28 08:20:29;;;;;;;14.98;4.80;;;;;;;7.80;100.00;99015.38;5259643;28;20074;-69
2021/12/28 08:23:01;;;;;;;11.25;4.85;;;;;;;7.85;100.00;99008.66;5264162;28;20340;-69
2021/12/28 08:25:33;;;;;;;12.32;4.55;;;;;;;7.84;100.00;99012.31;5260091;28;20064;-69
2021/12/28 08:28:06;;;;;;;11.10;4.75;;;;;;;7.88;100.00;99006.69;5263643;28;20068;-69
2021/12/28 08:30:38;;;;;;;13.38;5.05;;;;;;;7.87;100.00;99003.22;5270301;28;20033;-69
2021/12/28 08:33:09;;;;;;;14.63;5.78;;;;;;;7.88;100.00;99001.38;5259441;28;20021;-69
2021/12/28 08:35:41;;;;;;;14.02;5.03;;;;;;;7.95;100.00;99005.13;5268198;28;20090;-69
2021/12/28 08:38:12;;;;;;;15.52;6.18;;;;;;;7.94;100.00;98996.34;5261676;28;20103;-69
2021/12/28 08:40:44;;;;;;;18.90;6.53;;;;;;;7.95;100.00;98992.69;5265776;28;20090;-69
2021/12/28 08:43:16;;;;;;;16.10;7.47;;;;;;;8.00;100.00;98995.75;5264474;28;20027;-69
2021/12/28 08:45:47;;;;;;;13.93;7.38;;;;;;;8.01;100.00;98997.41;5272332;28;20107;-69
2021/12/28 08:48:19;;;;;;;16.08;7.22;;;;;;;8.02;100.00;98999.09;5259927;28;20033;-69
2021/12/28 08:50:50;;;;;;;19.98;9.45;;;;;;;8.04;100.00;98997.13;5262237;28;20053;-69
2021/12/28 08:53:22;;;;;;;21.38;10.18;;;;;;;8.07;100.00;98996.00;5264615;28;20017;-69
2021/12/28 08:55:53;;;;;;;17.95;9.77;;;;;;;8.10;100.00;99000.19;5258960;28;20047;-69
2021/12/28 08:58:24;;;;;;;19.33;10.15;;;;;;;8.11;100.00;98996.53;5261267;28;20035;-69
2021/12/28 09:00:56;;;;;;;19.88;10.25;;;;;;;8.14;100.00;98998.91;5260109;28;20039;-69
2021/12/28 09:03:27;;;;;;;21.40;9.88;;;;;;;8.11;100.00;98991.22;5265871;28;20035;-69
2021/12/28 09:06:00;;;;;;;19.63;10.18;;;;;;;8.18;100.00;98989.66;5259949;28;20111;-69
2021/12/28 09:08:32;;;;;;;20.77;10.68;;;;;;;8.14;100.00;98988.28;5264040;28;20077;-70
2021/12/28 09:11:03;;;;;;;20.65;10.45;;;;;;;8.19;100.00;98980.72;5264948;28;20032;-69
2021/12/28 09:13:36;;;;;;;23.05;10.95;;;;;;;8.22;100.00;98980.41;5260785;28;20024;-69
2021/12/28 09:16:09;;;;;;;18.17;10.48;;;;;;;8.19;100.00;98986.84;5267455;28;20036;-69
2021/12/28 09:18:41;;;;;;;23.00;12.48;;;;;;;8.24;100.00;98976.59;5265823;28;20498;-69
2021/12/28 09:21:12;;;;;;;21.70;12.30;;;;;;;8.30;100.00;98971.69;5259581;28;20037;-69
2021/12/28 09:23:43;;;;;;;24.08;12.98;;;;;;;8.35;100.00;98975.56;5268245;28;20037;-69
2021/12/28 09:26:15;;;;;;;24.40;12.63;;;;;;;8.39;100.00;98976.94;5263452;28;20020;-69
2021/12/28 09:28:46;;;;;;;25.95;13.13;;;;;;;8.38;100.00;98969.97;5271808;28;20418;-69
2021/12/28 09:31:17;;;;;;;22.00;12.77;;;;;;;8.42;100.00;98968.72;5257682;28;20079;-69
2021/12/28 09:33:49;;;;;;;35.55;14.80;;;;;;;8.34;100.00;98963.28;5263695;28;20383;-68
2021/12/28 09:36:20;;;;;;;24.30;13.05;;;;;;;8.43;100.00;98966.88;5266293;28;20036;-69
2021/12/28 09:38:52;;;;;;;22.70;13.20;;;;;;;8.40;100.00;98959.19;5261705;28;20040;-68
2021/12/28 09:41:23;;;;;;;24.67;13.07;;;;;;;8.46;100.00;98960.41;5269104;28;20033;-69
2021/12/28 09:43:54;;;;;;;20.75;12.48;;;;;;;8.49;100.00;98962.78;5272093;28;20036;-69
2021/12/28 09:46:26;;;;;;;21.55;12.32;;;;;;;8.52;100.00;98946.56;5264084;28;20479;-68
2021/12/28 09:48:57;;;;;;;23.35;12.98;;;;;;;8.54;100.00;98952.56;5263822;28;20040;-68
2021/12/28 09:51:28;;;;;;;20.98;12.85;;;;;;;8.50;100.00;98938.72;5269435;28;20028;-69
2021/12/28 09:54:00;;;;;;;21.50;12.85;;;;;;;8.52;100.00;98943.91;5271122;28;20040;-68
2021/12/28 09:56:31;;;;;;;20.30;12.93;;;;;;;8.53;100.00;98937.56;5269035;28;20025;-69
2021/12/28 09:59:04;;;;;;;18.20;11.68;;;;;;;8.59;100.00;98943.13;5259383;28;20032;-69
2021/12/28 10:01:35;;;;;;;19.45;12.20;;;;;;;8.63;100.00;98927.72;5266786;28;20024;-69
2021/12/28 10:04:07;;;;;;;21.42;12.95;;;;;;;8.66;100.00;98937.22;5256072;28;20500;-69
2021/12/28 10:06:39;;;;;;;18.55;11.43;;;;;;;8.62;100.00;98924.22;5266484;28;20033;-68
2021/12/28 10:09:12;;;;;;;19.48;11.32;;;;;;;8.76;100.00;98935.28;5260427;28;20052;-69
2021/12/28 10:11:50;;;;;;;16.67;10.75;;;;;;;8.76;100.00;98935.28;5257372;28;20104;-69
2021/12/28 10:14:23;;;;;;;17.00;11.18;;;;;;;8.75;100.00;98926.50;5259945;28;20021;-69
2021/12/28 10:16:58;;;;;;;16.67;10.32;;;;;;;8.74;100.00;98919.47;5259561;28;20494;-69
2021/12/28 10:19:35;;;;;;;17.42;10.23;;;;;;;8.77;100.00;98923.69;5268216;28;20024;-68
2021/12/28 10:22:24;;;;;;;15.95;10.55;;;;;;;8.82;100.00;98908.94;5266317;28;20028;-69
2021/12/28 10:25:27;;;;;;;14.52;9.15;;;;;;;8.82;100.00;98890.31;5266443;28;20033;-69
2021/12/28 10:28:02;;;;;;;14.27;8.90;;;;;;;8.86;100.00;98897.97;5253837;28;20036;-69
2021/12/28 10:30:37;;;;;;;13.88;7.90;;;;;;;8.87;100.00;98889.84;5263374;28;20055;-69
2021/12/28 10:33:11;;;;;;;13.15;8.10;;;;;;;8.90;100.00;98878.06;5268163;28;20029;-69
2021/12/28 10:35:45;;;;;;;;;;;;;;;8.94;100.00;98874.13;5265513;28;20028;-69
2021/12/28 10:38:20;;;;;;;10.68;7.20;;;;;;;8.97;100.00;98874.63;5259358;28;20576;-69
2021/12/28 10:41:00;;;;;;;13.02;6.95;;;;;;;8.97;100.00;98869.31;5266097;28;20469;-69
2021/12/28 10:43:34;;;;;;;9.00;5.68;;;;;;;8.95;100.00;98863.31;5264155;28;20051;-69
2021/12/28 10:46:08;;;;;;;9.75;5.72;;;;;;;8.96;100.00;98865.00;5264703;28;20763;-69
2021/12/28 10:48:50;;;;;;;10.02;5.25;;;;;;;8.99;100.00;98867.34;5275484;28;20051;-69
2021/12/28 10:51:28;;;;;;;7.75;4.53;;;;;;;8.93;100.00;98865.28;5265061;28;20522;-69
2021/12/28 10:54:12;;;;;;;10.18;4.45;;;;;;;8.94;100.00;98871.47;5260184;28;20032;-69
2021/12/28 10:56:46;;;;;;;8.03;4.47;;;;;;;8.99;100.00;98862.03;5267256;28;20385;-68
2021/12/28 10:59:23;;;;;;;11.07;4.88;;;;;;;8.97;100.00;98855.19;5264979;28;20474;-68
2021/12/28 11:01:54;;;;;;;8.75;4.93;;;;;;;8.99;100.00;98853.19;5261818;28;20389;-69
2021/12/28 11:04:37;;;;;;;9.38;4.63;;;;;;;8.98;100.00;98851.53;5265578;28;20032;-68
2021/12/28 11:07:08;;;;;;;11.68;4.82;;;;;;;8.97;100.00;98853.34;5266618;28;20032;-69
2021/12/28 11:09:49;;;;;;;13.90;5.40;;;;;;;8.96;100.00;98840.22;5263420;28;20110;-68
2021/12/28 11:12:20;;;;;;;8.93;4.50;;;;;;;8.96;100.00;98838.38;5270914;28;20059;-68
2021/12/28 11:14:52;;;;;;;8.50;5.00;;;;;;;9.02;100.00;98834.28;5267899;28;20111;-68
2021/12/28 11:17:30;;;;;;;9.60;4.82;;;;;;;9.05;100.00;98822.47;5263888;28;20021;-68
2021/12/28 11:20:03;;;;;;;11.13;5.32;;;;;;;9.04;100.00;98832.28;5269751;28;20035;-68
2021/12/28 11:22:34;;;;;;;8.57;5.35;;;;;;;8.98;100.00;98822.28;5257580;28;20040;-69
2021/12/28 11:25:19;;;;;;;8.70;5.35;;;;;;;9.03;100.00;98830.59;5264248;28;20037;-68
2021/12/28 11:28:11;;;;;;;9.45;4.80;;;;;;;9.02;100.00;98821.78;5269194;28;20107;-69
2021/12/28 11:31:09;;;;;;;6.68;3.95;;;;;;;9.01;100.00;98830.78;5264804;28;20024;-68
2021/12/28 11:33:48;;;;;;;8.02;4.10;;;;;;;8.96;100.00;98822.44;5262556;28;20079;-68
2021/12/28 11:36:22;;;;;;;5.10;2.72;;;;;;;8.96;100.00;98821.59;5272240;28;20040;-69
2021/12/28 11:38:59;;;;;;;4.68;2.60;;;;;;;8.91;100.00;98810.59;5269082;28;20043;-69
2021/12/28 11:41:30;;;;;;;6.82;2.10;;;;;;;8.92;100.00;98813.09;5263784;28;20491;-69
2021/12/28 11:44:03;;;;;;;5.20;2.03;;;;;;;8.87;100.00;98819.88;5260567;28;20085;-68
2021/12/28 11:46:35;;;;;;;6.60;1.95;;;;;;;8.82;100.00;98817.66;5275122;28;20035;-68
2021/12/28 11:49:08;;;;;;;5.55;1.40;;;;;;;8.76;100.00;98819.16;5266071;28;20093;-68
2021/12/28 11:51:41;;;;;;;4.45;1.52;;;;;;;8.77;100.00;98823.47;5264858;28;20437;-69